Time;durP1;ratioP1;P1;durP2;ratioP2;P2;SDS_P1;SDS_P2;PMS_P1;PMS_P2;Temp;Humidity;BMP_temperature;BMP_pressure;BME280_temperature;BME280_humidity;BME280_pressure;Samples;Min_cycle;Max_cycle;Signal;HPM_P1;HPM_P2
2022/11/27 00:00:43;;;;;;;21.42;6.00;;;6.90;99.90;;;;;;5072962;28;20040;-70
2022/11/27 00:03:09;;;;;;;19.02;5.68;;;7.00;99.90;;;;;;5072815;28;20040;-70
2022/11/27 00:05:35;;;;;;;20.80;6.00;;;6.90;99.90;;;;;;5073901;28;20094;-70
2022/11/27 00:08:00;;;;;;;18.50;6.05;;;6.90;99.90;;;;;;5072770;28;20398;-70
2022/11/27 00:10:26;;;;;;;20.98;5.20;;;6.90;99.90;;;;;;5072978;28;20041;-70
2022/11/27 00:12:51;;;;;;;19.40;5.68;;;6.90;99.90;;;;;;5072668;28;20496;-70
2022/11/27 00:15:17;;;;;;;22.13;5.85;;;6.90;99.90;;;;;;5072641;28;20044;-70
2022/11/27 00:17:43;;;;;;;21.27;6.10;;;6.90;99.90;;;;;;5072590;28;20499;-70
2022/11/27 00:20:09;;;;;;;23.25;6.90;;;6.90;99.90;;;;;;5072836;28;20505;-70
2022/11/27 00:22:35;;;;;;;16.80;5.63;;;6.80;99.90;;;;;;5072704;28;20505;-70
2022/11/27 00:25:00;;;;;;;18.52;5.85;;;6.80;99.90;;;;;;5072501;28;20490;-70
2022/11/27 00:27:26;;;;;;;20.55;6.22;;;6.80;99.90;;;;;;5072409;28;20048;-70
2022/11/27 00:29:51;;;;;;;19.95;5.63;;;6.80;99.90;;;;;;5072268;28;20044;-70
2022/11/27 00:32:17;;;;;;;19.30;6.25;;;6.80;99.90;;;;;;5072553;28;20040;-70
2022/11/27 00:34:42;;;;;;;18.73;6.45;;;6.80;99.90;;;;;;5072306;28;20040;-70
2022/11/27 00:37:08;;;;;;;20.05;6.20;;;6.70;99.90;;;;;;5072515;28;20044;-70
2022/11/27 00:39:33;;;;;;;16.83;5.55;;;6.70;99.90;;;;;;5072208;28;20048;-70
2022/11/27 00:41:59;;;;;;;18.23;6.45;;;6.70;99.90;;;;;;5072485;28;20105;-70
2022/11/27 00:44:24;;;;;;;12.57;5.53;;;6.70;99.90;;;;;;5072075;28;20575;-70
2022/11/27 00:46:50;;;;;;;17.75;5.88;;;6.60;99.90;;;;;;5072023;28;20127;-70
2022/11/27 00:49:16;;;;;;;17.40;6.15;;;6.60;99.90;;;;;;5072005;28;20037;-70
2022/11/27 00:51:42;;;;;;;15.45;6.00;;;6.60;99.90;;;;;;5072056;28;20052;-70
2022/11/27 00:54:07;;;;;;;23.60;6.82;;;6.60;99.90;;;;;;5071918;28;20044;-70
2022/11/27 00:56:35;;;;;;;21.40;6.05;;;6.60;99.90;;;;;;5055342;28;20123;-70
2022/11/27 00:59:02;;;;;;;18.45;6.28;;;6.60;99.90;;;;;;5072283;28;20123;-70
2022/11/27 01:01:39;;;;;;;17.75;5.80;;;6.50;99.90;;;;;;5071708;28;20395;-70
2022/11/27 01:04:07;;;;;;;15.82;6.03;;;6.60;99.90;;;;;;5071668;28;20458;-70
2022/11/27 01:06:33;;;;;;;13.35;6.38;;;6.50;99.90;;;;;;5071884;28;20043;-70
2022/11/27 01:08:59;;;;;;;18.55;5.97;;;6.50;99.90;;;;;;5071773;28;20512;-70
2022/11/27 01:11:28;;;;;;;17.38;6.35;;;6.50;99.90;;;;;;5071829;28;20056;-70
2022/11/27 01:13:55;;;;;;;16.33;6.00;;;6.50;99.90;;;;;;5072018;28;20040;-70
2022/11/27 01:16:23;;;;;;;20.35;6.05;;;6.50;99.90;;;;;;5072043;28;20041;-70
2022/11/27 01:18:50;;;;;;;21.80;6.53;;;6.50;99.90;;;;;;5072078;28;20106;-70
2022/11/27 01:21:18;;;;;;;19.50;5.63;;;6.50;99.90;;;;;;5071754;28;20045;-70
2022/11/27 01:23:44;;;;;;;17.27;6.50;;;6.40;99.90;;;;;;5071615;28;20123;-70
2022/11/27 01:26:11;;;;;;;18.08;5.55;;;6.40;99.90;;;;;;5071751;28;20068;-70
2022/11/27 01:28:38;;;;;;;20.63;6.63;;;6.40;99.90;;;;;;5071665;28;20055;-70
2022/11/27 01:31:11;;;;;;;15.32;5.63;;;6.40;99.90;;;;;;5071678;28;20493;-70
2022/11/27 01:33:37;;;;;;;17.02;5.90;;;6.40;99.90;;;;;;5071625;28;20040;-70
2022/11/27 01:36:05;;;;;;;17.40;6.47;;;6.30;99.90;;;;;;5071627;28;20119;-70
2022/11/27 01:38:31;;;;;;;20.55;6.05;;;6.30;99.90;;;;;;5071625;28;20051;-70
2022/11/27 01:41:05;;;;;;;20.08;6.72;;;6.30;99.90;;;;;;5071585;28;20390;-70
2022/11/27 01:43:49;;;;;;;19.50;6.00;;;6.30;99.90;;;;;;5071751;28;20440;-70
2022/11/27 01:46:25;;;;;;;26.10;7.60;;;6.30;99.90;;;;;;5071605;28;20434;-70
2022/11/27 01:49:04;;;;;;;17.20;5.95;;;6.20;99.90;;;;;;5071609;28;20041;-70
2022/11/27 01:51:30;;;;;;;18.77;6.50;;;6.20;99.90;;;;;;5071515;28;20401;-70
2022/11/27 01:53:56;;;;;;;20.77;6.43;;;6.20;99.90;;;;;;5071700;28;20477;-70
2022/11/27 01:56:23;;;;;;;18.23;6.38;;;6.20;99.90;;;;;;5071433;28;20123;-70
2022/11/27 01:58:49;;;;;;;17.77;5.57;;;6.10;99.90;;;;;;5071447;28;20056;-70
2022/11/27 02:01:15;;;;;;;16.90;6.30;;;6.10;99.90;;;;;;5073188;28;20036;-70
2022/11/27 02:03:41;;;;;;;17.70;6.13;;;6.10;99.90;;;;;;5071279;28;20081;-70
2022/11/27 02:06:11;;;;;;;19.67;6.93;;;6.10;99.90;;;;;;5071390;28;20041;-70
2022/11/27 02:08:37;;;;;;;18.95;5.93;;;6.10;99.90;;;;;;5071829;28;20085;-70
2022/11/27 02:11:12;;;;;;;17.27;6.47;;;6.10;99.90;;;;;;5071557;28;20127;-70
2022/11/27 02:13:46;;;;;;;19.42;6.30;;;6.10;99.90;;;;;;5072052;28;20494;-70
2022/11/27 02:16:32;;;;;;;14.63;5.85;;;6.10;99.90;;;;;;5058366;28;20068;-70
2022/11/27 02:19:11;;;;;;;17.92;5.68;;;6.10;99.90;;;;;;5074967;28;20041;-70
2022/11/27 02:21:45;;;;;;;14.40;5.60;;;6.10;99.90;;;;;;5075212;28;20074;-70
2022/11/27 02:24:34;;;;;;;15.27;5.88;;;6.10;99.90;;;;;;5075043;28;20119;-70
2022/11/27 02:27:35;;;;;;;17.27;6.00;;;6.10;99.90;;;;;;5074750;28;20398;-70
2022/11/27 02:30:02;;;;;;;19.33;6.25;;;6.10;99.90;;;;;;5072250;28;20088;-70
2022/11/27 02:32:43;;;;;;;17.98;5.85;;;6.00;99.90;;;;;;5074544;28;20053;-70
2022/11/27 02:35:31;;;;;;;16.33;6.22;;;6.10;99.90;;;;;;5074690;28;20048;-70
2022/11/27 02:38:04;;;;;;;20.35;6.30;;;6.10;99.90;;;;;;5074617;28;20413;-70
2022/11/27 02:40:43;;;;;;;19.40;6.40;;;6.00;99.90;;;;;;5057991;28;20076;-70
2022/11/27 02:43:17;;;;;;;21.83;5.97;;;6.00;99.90;;;;;;5074786;28;20048;-70
2022/11/27 02:45:46;;;;;;;17.70;5.85;;;6.00;99.90;;;;;;5074407;28;20074;-70
2022/11/27 02:48:14;;;;;;;16.05;6.07;;;6.10;99.90;;;;;;5074374;28;20511;-70
2022/11/27 02:50:43;;;;;;;15.00;5.85;;;6.00;99.90;;;;;;5074431;28;20044;-70
2022/11/27 02:53:14;;;;;;;19.25;5.72;;;6.00;99.90;;;;;;5074593;28;20036;-70
2022/11/27 02:55:42;;;;;;;14.63;5.90;;;6.00;99.90;;;;;;5074624;28;20040;-70
2022/11/27 02:58:13;;;;;;;19.90;5.90;;;6.10;99.90;;;;;;5074249;28;20450;-70
2022/11/27 03:00:40;;;;;;;13.75;5.15;;;6.00;99.90;;;;;;5074524;28;20071;-70
2022/11/27 03:03:08;;;;;;;16.08;5.90;;;6.10;99.90;;;;;;5074378;28;20045;-70
2022/11/27 03:05:39;;;;;;;16.67;6.28;;;6.10;99.90;;;;;;5074114;28;20505;-70
2022/11/27 03:08:24;;;;;;;14.20;5.43;;;6.10;99.90;;;;;;5074070;28;20044;-70
2022/11/27 03:10:56;;;;;;;12.25;5.18;;;6.10;99.90;;;;;;5074024;28;20413;-70
2022/11/27 03:13:22;;;;;;;14.50;5.35;;;6.10;99.90;;;;;;5074344;28;20095;-70
2022/11/27 03:16:01;;;;;;;15.00;5.47;;;6.10;99.90;;;;;;5057244;28;20085;-70
2022/11/27 03:18:45;;;;;;;16.77;6.03;;;6.10;99.90;;;;;;5074120;28;20048;-70
2022/11/27 03:21:27;;;;;;;13.65;5.43;;;6.10;99.90;;;;;;5073856;28;20047;-70
2022/11/27 03:23:53;;;;;;;13.77;5.90;;;6.10;99.90;;;;;;5073727;28;20044;-70
2022/11/27 03:26:18;;;;;;;18.52;6.05;;;6.10;99.90;;;;;;5072828;28;20115;-70
2022/11/27 03:28:45;;;;;;;16.27;5.80;;;6.10;99.90;;;;;;5073649;28;20068;-70
2022/11/27 03:31:12;;;;;;;14.38;4.90;;;6.10;99.90;;;;;;5073874;28;20048;-70
2022/11/27 03:33:38;;;;;;;18.55;5.88;;;6.10;99.90;;;;;;5073502;28;20040;-70
2022/11/27 03:36:16;;;;;;;16.92;5.43;;;6.10;99.90;;;;;;5073530;28;20056;-70
2022/11/27 03:38:43;;;;;;;15.23;5.82;;;6.10;99.90;;;;;;5073736;28;20095;-70
2022/11/27 03:41:20;;;;;;;13.88;5.18;;;6.10;99.90;;;;;;5073427;28;20090;-70
2022/11/27 03:44:31;;;;;;;13.50;5.63;;;6.10;99.90;;;;;;5073577;28;20094;-70
2022/11/27 03:46:56;;;;;;;14.05;5.07;;;6.10;99.90;;;;;;5063081;28;20064;-70
2022/11/27 03:49:30;;;;;;;13.30;5.10;;;6.10;99.90;;;;;;5073200;28;20036;-70
2022/11/27 03:52:29;;;;;;;13.60;4.90;;;6.10;99.90;;;;;;5073188;28;20131;-70
2022/11/27 03:55:14;;;;;;;14.35;5.75;;;6.10;99.90;;;;;;5073401;28;20040;-70
2022/11/27 03:57:47;;;;;;;15.48;5.05;;;6.10;99.90;;;;;;5073105;28;20036;-70
2022/11/27 04:00:13;;;;;;;10.77;4.70;;;6.10;99.90;;;;;;5073078;28;20494;-70
2022/11/27 04:02:46;;;;;;;17.58;5.63;;;6.10;99.90;;;;;;5072865;28;20119;-70
2022/11/27 04:05:12;;;;;;;14.20;4.68;;;6.10;99.90;;;;;;5073266;28;20100;-70
2022/11/27 04:07:39;;;;;;;16.55;5.30;;;6.10;99.90;;;;;;5072823;28;20398;-69
2022/11/27 04:10:05;;;;;;;18.38;5.35;;;6.10;99.90;;;;;;5072772;28;20048;-70
2022/11/27 04:12:31;;;;;;;16.88;4.43;;;6.10;99.90;;;;;;5072904;28;20044;-70
2022/11/27 04:14:56;;;;;;;12.30;4.57;;;6.10;99.90;;;;;;5072676;28;20041;-70
2022/11/27 04:17:22;;;;;;;10.73;4.65;;;6.10;99.90;;;;;;5072669;28;20409;-70
2022/11/27 04:19:48;;;;;;;16.75;4.97;;;6.10;99.90;;;;;;5072647;28;20397;-70
2022/11/27 04:22:13;;;;;;;13.10;4.30;;;6.10;99.90;;;;;;5072609;28;20154;-70
2022/11/27 04:24:39;;;;;;;15.15;4.93;;;6.10;99.90;;;;;;5072514;28;20119;-70
2022/11/27 04:27:05;;;;;;;15.05;5.00;;;6.10;99.90;;;;;;5072460;28;20047;-70
2022/11/27 04:29:30;;;;;;;15.95;4.43;;;6.10;99.90;;;;;;5072329;28;20040;-70
2022/11/27 04:31:56;;;;;;;14.77;4.50;;;6.10;99.90;;;;;;5072362;28;20040;-70
2022/11/27 04:34:21;;;;;;;15.90;4.63;;;6.20;99.90;;;;;;5072265;28;20033;-70
2022/11/27 04:36:47;;;;;;;16.45;4.28;;;6.20;99.90;;;;;;5072391;28;20041;-70
2022/11/27 04:39:13;;;;;;;16.05;5.07;;;6.20;99.90;;;;;;5072508;28;20051;-70
2022/11/27 04:41:38;;;;;;;10.55;3.92;;;6.20;99.90;;;;;;5072246;28;20051;-70
2022/11/27 04:44:04;;;;;;;14.30;4.70;;;6.20;99.90;;;;;;5073343;28;20048;-70
2022/11/27 04:46:30;;;;;;;14.48;4.45;;;6.10;99.90;;;;;;5072085;28;20033;-70
2022/11/27 04:48:56;;;;;;;13.27;4.43;;;6.10;99.90;;;;;;5072052;28;20068;-70
2022/11/27 04:51:21;;;;;;;15.65;5.20;;;6.20;99.90;;;;;;5072088;28;20051;-70
2022/11/27 04:53:47;;;;;;;20.10;4.70;;;6.10;99.90;;;;;;5072247;28;20047;-70
2022/11/27 04:56:13;;;;;;;14.95;4.57;;;6.20;99.90;;;;;;5072034;28;20043;-70
2022/11/27 04:58:38;;;;;;;12.60;4.22;;;6.20;99.90;;;;;;5071966;28;20036;-70
2022/11/27 05:01:04;;;;;;;16.30;4.40;;;6.20;99.90;;;;;;5072213;28;20041;-70
2022/11/27 05:03:29;;;;;;;12.55;3.85;;;6.20;99.90;;;;;;5071857;28;20489;-70
2022/11/27 05:05:56;;;;;;;16.05;3.85;;;6.10;99.90;;;;;;5071921;28;20041;-70
2022/11/27 05:08:23;;;;;;;10.88;4.18;;;6.10;99.90;;;;;;5071799;28;20037;-70
2022/11/27 05:11:03;;;;;;;16.83;4.22;;;6.10;99.90;;;;;;5071858;28;20505;-70
2022/11/27 05:13:29;;;;;;;15.55;4.90;;;6.10;99.90;;;;;;5071810;28;20452;-70
2022/11/27 05:15:55;;;;;;;13.77;4.45;;;6.10;99.90;;;;;;5071804;28;20048;-70
2022/11/27 05:18:21;;;;;;;17.52;4.30;;;6.10;99.90;;;;;;5071755;28;20045;-70
2022/11/27 05:20:46;;;;;;;13.52;4.45;;;6.10;99.90;;;;;;5071760;28;20040;-70
2022/11/27 05:23:12;;;;;;;12.60;4.05;;;6.10;99.90;;;;;;5071637;28;20076;-70
2022/11/27 05:25:38;;;;;;;12.30;3.95;;;6.10;99.90;;;;;;5071944;28;20070;-70
2022/11/27 05:28:04;;;;;;;10.75;4.03;;;6.10;99.90;;;;;;5071882;28;20113;-70
2022/11/27 05:30:29;;;;;;;12.07;4.05;;;6.10;99.90;;;;;;5071712;28;20517;-69
2022/11/27 05:32:55;;;;;;;10.25;4.18;;;6.10;99.90;;;;;;5071670;28;20037;-70
2022/11/27 05:35:20;;;;;;;12.57;4.97;;;6.10;99.90;;;;;;5071902;28;20397;-70
2022/11/27 05:37:46;;;;;;;18.23;4.53;;;6.10;99.90;;;;;;5071656;28;20493;-70
2022/11/27 05:40:12;;;;;;;14.93;4.18;;;6.10;99.90;;;;;;5071632;28;20064;-70
2022/11/27 05:42:37;;;;;;;13.38;4.72;;;6.10;99.90;;;;;;5071526;28;20111;-70
2022/11/27 05:45:03;;;;;;;13.57;3.95;;;6.10;99.90;;;;;;5071428;28;20052;-70
2022/11/27 05:47:29;;;;;;;13.07;3.97;;;6.10;99.90;;;;;;5071519;28;20094;-70
2022/11/27 05:49:54;;;;;;;14.32;4.07;;;6.10;99.90;;;;;;5074491;28;20048;-70
2022/11/27 05:52:20;;;;;;;15.45;4.18;;;6.10;99.90;;;;;;5075416;28;20440;-70
2022/11/27 05:54:45;;;;;;;11.32;4.15;;;6.00;99.90;;;;;;5075444;28;20037;-70
2022/11/27 05:57:11;;;;;;;18.17;4.80;;;6.00;99.90;;;;;;5075435;28;20036;-70
2022/11/27 05:59:36;;;;;;;9.93;4.40;;;6.10;99.90;;;;;;5075610;28;20044;-70
2022/11/27 06:02:02;;;;;;;14.63;4.28;;;6.10;99.90;;;;;;5075283;28;20041;-69
2022/11/27 06:04:27;;;;;;;14.07;3.88;;;6.10;99.90;;;;;;5075204;28;20032;-70
2022/11/27 06:06:53;;;;;;;9.45;3.58;;;6.00;99.90;;;;;;5075480;28;20059;-70
2022/11/27 06:09:19;;;;;;;14.55;3.70;;;6.10;99.90;;;;;;5075234;28;20037;-70
2022/11/27 06:11:44;;;;;;;13.48;4.03;;;6.00;99.90;;;;;;5075349;28;20509;-70
2022/11/27 06:14:10;;;;;;;11.00;4.55;;;6.10;99.90;;;;;;5074986;28;20536;-70
2022/11/27 06:16:36;;;;;;;10.48;3.88;;;6.10;99.90;;;;;;5075275;28;20037;-70
2022/11/27 06:19:02;;;;;;;13.57;3.85;;;6.10;99.90;;;;;;5074947;28;20044;-70
2022/11/27 06:21:27;;;;;;;13.05;4.00;;;6.10;99.90;;;;;;5075135;28;20041;-70
2022/11/27 06:23:54;;;;;;;14.13;4.78;;;6.00;99.90;;;;;;5074796;28;20501;-69
2022/11/27 06:26:24;;;;;;;12.70;4.75;;;6.00;99.90;;;;;;5074813;28;20074;-69
2022/11/27 06:28:50;;;;;;;13.52;4.03;;;6.10;99.90;;;;;;5074714;28;20064;-69
2022/11/27 06:31:19;;;;;;;13.85;4.47;;;6.10;99.90;;;;;;5074999;28;20044;-69
2022/11/27 06:33:46;;;;;;;11.35;3.60;;;6.10;99.90;;;;;;5074867;28;20123;-69
2022/11/27 06:36:12;;;;;;;12.02;4.15;;;6.00;99.90;;;;;;5074657;28;20463;-70
2022/11/27 06:38:38;;;;;;;12.82;4.63;;;6.10;99.90;;;;;;5074641;28;20036;-70
2022/11/27 06:41:06;;;;;;;10.60;3.88;;;6.10;99.90;;;;;;5074603;28;20086;-70
2022/11/27 06:43:32;;;;;;;10.95;3.78;;;6.10;99.90;;;;;;5074739;28;20056;-70
2022/11/27 06:45:58;;;;;;;10.07;4.03;;;6.10;99.90;;;;;;5074340;28;20132;-69
2022/11/27 06:48:23;;;;;;;10.27;3.85;;;6.10;99.90;;;;;;5074348;28;20089;-69
2022/11/27 06:50:49;;;;;;;10.82;4.00;;;6.10;99.90;;;;;;5074415;28;20037;-69
2022/11/27 06:53:15;;;;;;;13.40;3.97;;;6.10;99.90;;;;;;5074250;28;20044;-69
2022/11/27 06:55:40;;;;;;;11.85;3.92;;;6.10;99.90;;;;;;5074366;28;20036;-69
2022/11/27 06:58:06;;;;;;;10.38;4.28;;;6.10;99.90;;;;;;5057626;28;20094;-69
2022/11/27 07:00:32;;;;;;;11.90;4.43;;;6.10;99.90;;;;;;5073098;28;20045;-69
2022/11/27 07:02:57;;;;;;;12.15;4.15;;;6.10;99.90;;;;;;5074309;28;20055;-69
2022/11/27 07:05:23;;;;;;;12.68;3.80;;;6.10;99.90;;;;;;5074371;28;20045;-69
2022/11/27 07:07:49;;;;;;;11.52;4.10;;;6.10;99.90;;;;;;5057627;28;20510;-69
2022/11/27 07:10:14;;;;;;;9.80;4.35;;;6.10;99.90;;;;;;5073946;28;20071;-69
2022/11/27 07:12:40;;;;;;;13.32;4.32;;;6.10;99.90;;;;;;5073916;28;20390;-69
2022/11/27 07:15:06;;;;;;;11.50;5.03;;;6.10;99.90;;;;;;5073972;28;20036;-69
2022/11/27 07:17:32;;;;;;;10.80;4.90;;;6.10;99.90;;;;;;5073948;28;20032;-69
2022/11/27 07:19:57;;;;;;;12.80;4.60;;;6.10;99.90;;;;;;5073863;28;20098;-69
2022/11/27 07:22:23;;;;;;;12.68;4.55;;;6.20;99.90;;;;;;5057075;28;20040;-69
2022/11/27 07:24:48;;;;;;;10.40;4.25;;;6.10;99.90;;;;;;5057042;28;20040;-69
2022/11/27 07:27:14;;;;;;;15.57;4.30;;;6.10;99.90;;;;;;5074930;28;20048;-69
2022/11/27 07:29:39;;;;;;;10.00;3.90;;;6.10;99.90;;;;;;5073646;28;20040;-69
2022/11/27 07:32:05;;;;;;;10.30;4.93;;;6.20;99.90;;;;;;5073858;28;20558;-69
2022/11/27 07:34:30;;;;;;;13.52;4.78;;;6.10;99.90;;;;;;5073444;28;20494;-69
2022/11/27 07:36:56;;;;;;;11.60;4.43;;;6.10;99.90;;;;;;5073512;28;20446;-69
2022/11/27 07:39:21;;;;;;;10.23;4.50;;;6.20;99.90;;;;;;5073448;28;20041;-69
2022/11/27 07:41:47;;;;;;;10.50;4.75;;;6.20;99.90;;;;;;5073420;28;20044;-69
2022/11/27 07:44:13;;;;;;;12.15;4.85;;;6.20;99.90;;;;;;5073297;28;20036;-69
2022/11/27 07:46:38;;;;;;;10.00;4.47;;;6.20;99.90;;;;;;5073124;28;20043;-69
2022/11/27 07:49:04;;;;;;;11.73;4.63;;;6.20;99.90;;;;;;5073175;28;20047;-69
2022/11/27 07:51:29;;;;;;;11.15;4.90;;;6.20;99.90;;;;;;5073215;28;20041;-69
2022/11/27 07:53:55;;;;;;;8.70;4.38;;;6.20;99.90;;;;;;5073077;28;20040;-69
2022/11/27 07:56:21;;;;;;;13.43;5.05;;;6.20;99.90;;;;;;5073075;28;20040;-69
2022/11/27 07:58:46;;;;;;;12.43;5.47;;;6.20;99.90;;;;;;5073059;28;20082;-69
2022/11/27 08:01:15;;;;;;;10.27;5.63;;;6.20;99.90;;;;;;5073038;28;20044;-69
2022/11/27 08:03:43;;;;;;;12.65;4.85;;;6.20;99.90;;;;;;5073088;28;20505;-69
2022/11/27 08:06:23;;;;;;;14.85;4.80;;;6.20;99.90;;;;;;5072965;28;20060;-69
2022/11/27 08:08:49;;;;;;;13.00;5.43;;;6.30;99.90;;;;;;5072891;28;20054;-69
2022/11/27 08:11:28;;;;;;;14.93;5.28;;;6.20;99.90;;;;;;5072798;28;20041;-69
2022/11/27 08:13:59;;;;;;;11.75;5.47;;;6.30;99.90;;;;;;5072858;28;20067;-69
2022/11/27 08:16:25;;;;;;;12.60;5.00;;;6.30;99.90;;;;;;5056109;28;20184;-69
2022/11/27 08:18:51;;;;;;;11.90;4.75;;;6.30;99.90;;;;;;5072966;28;20524;-69
2022/11/27 08:21:17;;;;;;;13.00;5.70;;;6.30;99.90;;;;;;5072929;28;20433;-69
2022/11/27 08:23:43;;;;;;;13.65;5.60;;;6.30;99.90;;;;;;5072512;28;20040;-69
2022/11/27 08:26:10;;;;;;;14.10;5.90;;;6.20;99.90;;;;;;5072601;28;20093;-69
2022/11/27 08:28:36;;;;;;;14.98;5.97;;;6.30;99.90;;;;;;5072536;28;20497;-69
2022/11/27 08:31:03;;;;;;;13.07;6.00;;;6.20;99.90;;;;;;5072519;28;20119;-69
2022/11/27 08:33:29;;;;;;;14.25;6.05;;;6.30;99.90;;;;;;5072363;28;20405;-69
2022/11/27 08:35:55;;;;;;;14.05;5.68;;;6.30;99.90;;;;;;5055791;28;20036;-69
2022/11/27 08:38:20;;;;;;;13.32;6.20;;;6.30;99.90;;;;;;5072400;28;20051;-69
2022/11/27 08:41:07;;;;;;;13.75;6.00;;;6.30;99.90;;;;;;5072613;28;20047;-69
2022/11/27 08:43:33;;;;;;;14.93;6.03;;;6.30;99.90;;;;;;5072070;28;20125;-69
2022/11/27 08:46:01;;;;;;;11.70;6.05;;;6.30;99.90;;;;;;5072380;28;20099;-69
2022/11/27 08:48:27;;;;;;;13.25;5.85;;;6.30;99.90;;;;;;5072118;28;20413;-69
2022/11/27 08:50:54;;;;;;;13.05;5.72;;;6.30;99.90;;;;;;5072536;28;20047;-69
2022/11/27 08:53:19;;;;;;;13.95;6.55;;;6.30;99.90;;;;;;5072086;28;20119;-73
2022/11/27 08:55:45;;;;;;;13.05;5.90;;;6.30;99.90;;;;;;5072094;28;20073;-73
2022/11/27 08:58:10;;;;;;;14.30;6.20;;;6.30;99.90;;;;;;5072110;28;20049;-69
2022/11/27 09:00:37;;;;;;;13.05;5.97;;;6.40;99.90;;;;;;5072102;28;20152;-70
2022/11/27 09:03:03;;;;;;;12.63;5.82;;;6.40;99.90;;;;;;5072168;28;20056;-69
2022/11/27 09:05:29;;;;;;;14.98;6.20;;;6.40;99.90;;;;;;5071985;28;20043;-69
2022/11/27 09:07:55;;;;;;;11.23;6.05;;;6.40;99.90;;;;;;5072358;28;20145;-69
2022/11/27 09:10:21;;;;;;;11.27;6.35;;;6.40;99.90;;;;;;5072497;28;20525;-69
2022/11/27 09:12:50;;;;;;;12.70;6.45;;;6.40;99.90;;;;;;5072175;28;20082;-69
2022/11/27 09:15:16;;;;;;;18.25;7.25;;;6.40;99.90;;;;;;5072237;28;20054;-69
2022/11/27 09:17:42;;;;;;;13.52;6.18;;;6.40;99.90;;;;;;5071871;28;20147;-69
2022/11/27 09:20:08;;;;;;;12.93;6.38;;;6.40;99.90;;;;;;5073082;28;20496;-69
2022/11/27 09:22:34;;;;;;;16.85;7.03;;;6.40;99.90;;;;;;5071803;28;20040;-69
2022/11/27 09:25:00;;;;;;;16.25;6.65;;;6.40;99.90;;;;;;5071211;28;20539;-69
2022/11/27 09:27:26;;;;;;;14.82;6.72;;;6.50;99.90;;;;;;5072034;28;20044;-69
2022/11/27 09:29:52;;;;;;;16.13;7.13;;;6.50;99.90;;;;;;5071663;28;20037;-69
2022/11/27 09:32:17;;;;;;;13.68;6.68;;;6.50;99.90;;;;;;5071600;28;20115;-69
2022/11/27 09:34:43;;;;;;;14.70;6.97;;;6.50;99.90;;;;;;5071668;28;20036;-69
2022/11/27 09:37:09;;;;;;;17.88;7.20;;;6.50;99.90;;;;;;5071667;28;20040;-69
2022/11/27 09:39:34;;;;;;;14.60;7.10;;;6.50;99.90;;;;;;5071905;28;20148;-69
2022/11/27 09:42:05;;;;;;;17.83;7.38;;;6.50;99.90;;;;;;5071636;28;20469;-69
2022/11/27 09:44:57;;;;;;;13.80;7.00;;;6.50;99.90;;;;;;5071560;28;20040;-70
2022/11/27 09:47:35;;;;;;;13.20;6.97;;;6.50;99.90;;;;;;5069367;28;20084;-70
2022/11/27 09:50:05;;;;;;;15.73;7.13;;;6.50;99.90;;;;;;5071529;28;20486;-70
2022/11/27 09:52:39;;;;;;;17.55;7.53;;;6.50;99.90;;;;;;5071521;28;20043;-70
2022/11/27 09:55:19;;;;;;;16.40;7.60;;;6.50;99.90;;;;;;5071499;28;20036;-70
2022/11/27 09:58:12;;;;;;;16.65;7.60;;;6.50;99.90;;;;;;5071498;28;20062;-74
2022/11/27 10:00:38;;;;;;;14.73;7.57;;;6.50;99.90;;;;;;5036150;28;20044;-74
2022/11/27 10:03:11;;;;;;;12.60;6.85;;;6.50;99.90;;;;;;5071373;28;20072;-73
2022/11/27 10:06:15;;;;;;;14.35;7.45;;;6.50;99.90;;;;;;5071866;28;20413;-73
2022/11/27 10:08:59;;;;;;;;;;;6.50;99.90;;;;;;5072012;28;20509;-73
2022/11/27 10:11:48;;;;;;;15.02;7.20;;;6.50;99.90;;;;;;5071360;28;19991;-74
2022/11/27 10:14:56;;;;;;;17.25;7.90;;;6.50;99.90;;;;;;5071350;28;20044;-74
2022/11/27 10:17:40;;;;;;;15.88;7.68;;;6.50;99.90;;;;;;5071532;28;20040;-74
2022/11/27 10:20:36;;;;;;;15.52;8.20;;;6.50;99.90;;;;;;5071248;28;20050;-74
2022/11/27 10:23:41;;;;;;;16.67;7.50;;;6.50;99.90;;;;;;5071446;28;20047;-73
2022/11/27 10:26:26;;;;;;;15.48;7.60;;;6.50;99.90;;;;;;5071434;28;20464;-73
2022/11/27 10:29:23;;;;;;;15.80;8.02;;;6.50;99.90;;;;;;5054692;28;20040;-73
2022/11/27 10:31:52;;;;;;;15.50;7.85;;;6.50;99.90;;;;;;5071460;28;20051;-73
2022/11/27 10:34:40;;;;;;;16.73;7.25;;;6.50;99.90;;;;;;5071316;28;20068;-73
2022/11/27 10:37:24;;;;;;;17.15;7.55;;;6.50;99.90;;;;;;5075832;28;20370;-72
2022/11/27 10:39:57;;;;;;;20.55;8.05;;;6.50;99.90;;;;;;5074945;28;20131;-74
2022/11/27 10:42:36;;;;;;;15.98;8.02;;;6.50;99.90;;;;;;5058074;28;20102;-74
2022/11/27 10:45:06;;;;;;;16.58;7.60;;;6.50;99.90;;;;;;5074761;28;20041;-74
2022/11/27 10:47:32;;;;;;;14.50;7.13;;;6.50;99.90;;;;;;5058150;28;20105;-73
2022/11/27 10:49:58;;;;;;;18.00;8.13;;;6.50;99.90;;;;;;5074411;28;20036;-73
2022/11/27 10:52:24;;;;;;;14.18;7.72;;;6.50;99.90;;;;;;5057961;28;20078;-73
2022/11/27 10:54:59;;;;;;;14.18;7.18;;;6.50;99.90;;;;;;5074346;28;20037;-73
2022/11/27 10:57:56;;;;;;;15.27;7.43;;;6.60;99.90;;;;;;5074427;28;20110;-73
2022/11/27 11:00:23;;;;;;;14.50;7.05;;;6.60;99.90;;;;;;5074347;28;20126;-73
2022/11/27 11:03:00;;;;;;;14.32;6.40;;;6.50;99.90;;;;;;5074192;28;20048;-73
2022/11/27 11:05:27;;;;;;;15.15;7.28;;;6.60;99.90;;;;;;5074601;28;20041;-73
2022/11/27 11:08:06;;;;;;;14.50;6.68;;;6.60;99.90;;;;;;5074312;28;20045;-73
2022/11/27 11:10:33;;;;;;;13.38;7.25;;;6.60;99.90;;;;;;5075091;28;20040;-73
2022/11/27 11:13:19;;;;;;;16.60;7.45;;;6.60;99.90;;;;;;5075035;28;20047;-73
2022/11/27 11:16:02;;;;;;;15.32;6.60;;;6.60;99.90;;;;;;5074048;28;20045;-73
2022/11/27 11:18:34;;;;;;;15.50;6.97;;;6.60;99.90;;;;;;5057342;28;20040;-73
2022/11/27 11:21:02;;;;;;;14.57;6.90;;;6.60;99.90;;;;;;5073929;28;20071;-73
2022/11/27 11:23:32;;;;;;;12.82;7.38;;;6.60;99.90;;;;;;5073746;28;20036;-73
2022/11/27 11:26:20;;;;;;;15.20;7.32;;;6.70;99.90;;;;;;5073261;28;20425;-73
2022/11/27 11:28:50;;;;;;;14.80;6.82;;;6.70;99.90;;;;;;5066421;28;20092;-74
2022/11/27 11:31:20;;;;;;;14.93;7.18;;;6.70;99.90;;;;;;5056974;28;20036;-74
2022/11/27 11:33:54;;;;;;;14.20;6.90;;;6.80;99.90;;;;;;5073575;28;20037;-73
2022/11/27 11:36:20;;;;;;;15.98;7.53;;;6.70;99.90;;;;;;5073594;28;20520;-73
2022/11/27 11:38:48;;;;;;;13.07;6.93;;;6.80;99.90;;;;;;5073764;28;20044;-73
2022/11/27 11:41:16;;;;;;;14.35;6.72;;;6.80;99.90;;;;;;5073506;28;20041;-73
2022/11/27 11:43:56;;;;;;;13.77;6.72;;;6.80;99.90;;;;;;5056947;28;20048;-73
2022/11/27 11:46:25;;;;;;;9.63;5.80;;;6.80;99.90;;;;;;5072560;28;20052;-73
2022/11/27 11:48:56;;;;;;;14.43;7.03;;;6.80;99.90;;;;;;5073478;28;20044;-73
2022/11/27 11:51:33;;;;;;;12.43;6.43;;;6.90;99.90;;;;;;5073261;28;20094;-73
2022/11/27 11:54:16;;;;;;;14.73;7.15;;;6.90;99.90;;;;;;5073224;28;20040;-73
2022/11/27 11:56:48;;;;;;;9.70;5.97;;;6.80;99.90;;;;;;5073488;28;20040;-72
2022/11/27 11:59:25;;;;;;;13.10;7.82;;;6.80;99.90;;;;;;5074236;28;20105;-72
2022/11/27 12:02:33;;;;;;;12.40;6.30;;;6.80;99.90;;;;;;5073137;28;20040;-72
2022/11/27 12:05:35;;;;;;;13.00;6.30;;;6.90;99.90;;;;;;5073409;28;20104;-72
2022/11/27 12:08:12;;;;;;;10.93;5.88;;;6.90;99.90;;;;;;5073045;28;20040;-72
2022/11/27 12:10:50;;;;;;;13.65;5.88;;;6.90;99.90;;;;;;5073019;28;20076;-72
2022/11/27 12:13:47;;;;;;;11.27;6.05;;;6.90;99.90;;;;;;5073103;28;20448;-72
2022/11/27 12:16:31;;;;;;;13.32;6.00;;;6.90;99.90;;;;;;5072901;28;20032;-72
2022/11/27 12:19:42;;;;;;;11.25;6.13;;;6.90;99.90;;;;;;5072776;28;20041;-72
2022/11/27 12:22:10;;;;;;;12.70;5.78;;;6.90;99.90;;;;;;5072681;28;20519;-72
2022/11/27 12:25:00;;;;;;;11.35;6.32;;;6.90;99.90;;;;;;5072780;28;20098;-72
2022/11/27 12:27:44;;;;;;;11.38;6.10;;;6.90;99.90;;;;;;5072597;28;20044;-72
2022/11/27 12:30:12;;;;;;;9.93;6.00;;;7.00;99.90;;;;;;5072532;28;20082;-72
2022/11/27 12:33:08;;;;;;;12.70;6.25;;;7.00;99.90;;;;;;5072371;28;20044;-72
2022/11/27 12:35:51;;;;;;;12.25;6.25;;;7.00;99.90;;;;;;5072440;28;20037;-68
2022/11/27 12:38:27;;;;;;;11.88;5.80;;;7.00;99.90;;;;;;5072451;28;20041;-68
2022/11/27 12:40:53;;;;;;;12.55;6.20;;;7.00;99.90;;;;;;5072388;28;20048;-68
2022/11/27 12:43:26;;;;;;;12.70;6.22;;;7.10;99.90;;;;;;5072255;28;20047;-68
2022/11/27 12:46:10;;;;;;;11.43;6.13;;;7.10;99.90;;;;;;5072433;28;20036;-68
2022/11/27 12:48:42;;;;;;;11.13;5.90;;;7.10;99.90;;;;;;5072140;28;20048;-68
2022/11/27 12:51:10;;;;;;;9.50;5.47;;;7.10;99.90;;;;;;5072247;28;20044;-68
2022/11/27 12:53:41;;;;;;;10.60;5.97;;;7.10;99.90;;;;;;5072058;28;20048;-68
2022/11/27 12:56:39;;;;;;;10.98;5.88;;;7.10;99.90;;;;;;5055492;28;20097;-68
2022/11/27 12:59:19;;;;;;;10.55;6.10;;;7.10;99.90;;;;;;5071461;28;20048;-68
2022/11/27 13:01:52;;;;;;;11.70;5.82;;;7.10;99.90;;;;;;5072878;28;20159;-68
2022/11/27 13:04:25;;;;;;;11.95;6.25;;;7.10;99.90;;;;;;5072326;28;20072;-68
2022/11/27 13:07:12;;;;;;;11.80;6.20;;;7.10;99.90;;;;;;5072263;28;20401;-68